Time;durP1;ratioP1;P1;durP2;ratioP2;P2;SDS_P1;SDS_P2;PMS_P1;PMS_P2;Temp;Humidity;BMP_temperature;BMP_pressure;BME280_temperature;BME280_humidity;BME280_pressure;Samples;Min_cycle;Max_cycle;Signal;HPM_P1;HPM_P2
2021/05/06 00:32:17;;;;;;;8.43;4.10;;;;;;;4.28;71.22;100356.25;4994523;28;20137;-51
2021/05/06 00:34:40;;;;;;;5.28;2.63;;;;;;;4.28;71.05;100355.44;4993349;28;20077;-46
2021/05/06 00:37:08;;;;;;;4.53;3.30;;;;;;;4.22;70.90;100354.75;4994117;28;20045;-46
2021/05/06 00:39:42;;;;;;;6.25;3.83;;;;;;;4.20;70.81;100354.25;4994336;28;20077;-46
2021/05/06 01:06:02;;;;;;;6.70;3.05;;;;;;;3.89;70.47;100347.09;4993167;28;20042;-51
2021/05/06 01:08:33;;;;;;;6.35;3.95;;;;;;;3.83;70.49;100353.81;4992386;28;20544;-47
2021/05/06 01:13:47;;;;;;;7.00;3.22;;;;;;;3.72;70.49;100347.75;4974665;28;20038;-47
2021/05/06 01:16:13;;;;;;;6.95;3.47;;;;;;;3.68;70.90;100346.75;4983783;28;20782;-51
2021/05/06 01:18:44;;;;;;;6.55;3.53;;;;;;;3.64;70.59;100345.75;4974286;28;20137;-51
2021/05/06 01:21:10;;;;;;;7.68;3.88;;;;;;;3.60;70.69;100342.03;4974518;28;20050;-48
2021/05/06 01:23:40;;;;;;;5.88;2.90;;;;;;;3.59;70.87;100343.16;4993274;28;20116;-49
2021/05/06 01:26:39;;;;;;;5.45;2.90;;;;;;;3.58;70.67;100338.78;4993049;28;20046;-48
2021/05/06 01:29:43;;;;;;;4.85;2.78;;;;;;;3.59;70.43;100332.19;4974281;28;20101;-47
2021/05/06 01:34:41;;;;;;;5.63;2.38;;;;;;;3.44;70.68;100327.84;4975325;28;20141;-50
2021/05/06 01:37:14;;;;;;;5.18;2.85;;;;;;;3.44;70.64;100340.75;4992216;28;20050;-49
2021/05/06 02:00:40;;;;;;;6.57;2.40;;;;;;;3.21;70.47;100309.78;4984664;28;20158;-46
2021/05/06 02:03:07;;;;;;;5.60;2.13;;;;;;;3.18;70.40;100306.88;4991290;28;20109;-49
2021/05/06 02:05:33;;;;;;;3.80;2.17;;;;;;;3.19;70.53;100300.28;4992252;28;20054;-50
2021/05/06 02:08:00;;;;;;;3.22;1.73;;;;;;;3.14;70.94;100303.13;4991089;28;20054;-46
2021/05/06 02:10:28;;;;;;;4.50;2.30;;;;;;;3.11;70.60;100301.81;4992332;28;20109;-45
2021/05/06 02:12:55;;;;;;;4.75;2.40;;;;;;;3.03;70.63;100295.13;4992105;28;20050;-47
2021/05/06 02:15:31;;;;;;;3.90;2.10;;;;;;;3.00;71.05;100303.94;4992171;28;20081;-46
2021/05/06 02:17:58;;;;;;;5.15;2.63;;;;;;;2.96;71.10;100293.94;4992760;28;20050;-45
2021/05/06 02:20:25;;;;;;;5.07;2.15;;;;;;;2.96;71.03;100297.50;4992546;28;20108;-45
2021/05/06 02:22:52;;;;;;;4.35;2.35;;;;;;;2.95;70.79;100293.13;4990632;28;20101;-44
2021/05/06 02:25:19;;;;;;;5.20;2.38;;;;;;;2.95;70.77;100295.84;4981709;28;20566;-47
2021/05/06 02:27:47;;;;;;;4.50;2.13;;;;;;;2.97;70.88;100298.28;4988830;28;20439;-44
2021/05/06 02:30:14;;;;;;;5.63;2.60;;;;;;;2.93;70.57;100281.69;4991204;28;20077;-46
2021/05/06 02:32:44;;;;;;;4.40;2.30;;;;;;;2.85;71.03;100285.13;4992121;28;20045;-47
2021/05/06 02:35:11;;;;;;;4.45;1.85;;;;;;;2.85;70.97;100282.41;4992334;28;20480;-47
2021/05/06 02:37:37;;;;;;;7.47;2.95;;;;;;;2.83;70.78;100284.59;4992325;28;20514;-47
2021/05/06 02:40:06;;;;;;;5.60;2.72;;;;;;;2.81;70.77;100278.66;4980203;28;20066;-48
2021/05/06 02:42:32;;;;;;;6.63;2.22;;;;;;;2.78;70.72;100279.25;4990788;28;20062;-49
2021/05/06 02:44:58;;;;;;;8.18;2.70;;;;;;;2.78;70.57;100292.91;4991962;28;20152;-50
2021/05/06 02:47:25;;;;;;;4.18;2.45;;;;;;;2.73;70.86;100287.56;4991758;28;20535;-48
2021/05/06 02:49:52;;;;;;;3.63;1.90;;;;;;;2.73;71.09;100295.75;4991574;28;20109;-49
2021/05/06 02:52:41;;;;;;;9.07;2.45;;;;;;;2.70;71.12;100288.16;4990810;28;20462;-46
2021/05/06 02:57:46;;;;;;;9.35;3.38;;;;;;;2.68;70.90;100284.13;4991622;28;20085;-49
2021/05/06 03:02:58;;;;;;;8.70;1.95;;;;;;;2.61;71.04;100283.72;4972682;28;20129;-49
2021/05/06 03:05:30;;;;;;;11.95;2.38;;;;;;;2.59;71.13;100283.22;4991620;28;20515;-50
2021/05/06 03:08:11;;;;;;;2.88;1.30;;;;;;;2.63;70.95;100287.75;4985756;28;20508;-49
2021/05/06 03:10:51;;;;;;;3.85;1.42;;;;;;;2.62;71.00;100269.75;4991340;28;20121;-50
2021/05/06 03:13:57;;;;;;;5.45;1.65;;;;;;;2.63;71.14;100276.84;4991335;28;20093;-48
2021/05/06 03:24:17;;;;;;;2.97;1.70;;;;;;;2.66;71.17;100276.22;4989731;28;20459;-51
2021/05/06 03:26:44;;;;;;;8.48;2.00;;;;;;;2.63;70.89;100276.03;4988759;28;20038;-48
2021/05/06 03:29:15;;;;;;;6.63;2.25;;;;;;;2.63;70.79;100265.91;4991351;28;20494;-47
2021/05/06 03:34:47;;;;;;;7.38;2.33;;;;;;;2.60;71.14;100271.97;4992016;28;20046;-47
2021/05/06 03:43:04;;;;;;;11.02;3.22;;;;;;;2.53;71.23;100266.13;4991379;28;20057;-50
2021/05/06 04:26:13;;;;;;;4.30;2.28;;;;;;;1.94;72.14;100249.75;4981463;28;20085;-50
2021/05/06 04:35:37;;;;;;;4.22;1.90;;;;;;;1.85;72.28;100246.91;4980204;28;20401;-49
2021/05/06 04:37:01;;;;;;;5.65;2.00;;;;;;;1.83;72.36;100240.94;4994218;28;20129;-49
2021/05/06 04:39:45;;;;;;;5.47;1.88;;;;;;;1.87;72.40;100246.59;4994723;28;20062;-48
2021/05/06 04:55:39;;;;;;;3.95;2.00;;;;;;;1.88;72.42;100254.47;4993497;28;20043;-50
2021/05/06 05:03:48;;;;;;;4.90;1.63;;;;;;;1.91;72.51;100253.88;4994063;28;20054;-46
2021/05/06 05:06:16;;;;;;;4.03;1.80;;;;;;;1.95;72.20;100260.38;4993472;28;20502;-46
2021/05/06 05:09:40;;;;;;;6.60;1.55;;;;;;;1.92;72.59;100254.69;4993789;28;20138;-47
2021/05/06 05:25:13;;;;;;;3.70;2.08;;;;;;;2.01;72.43;100264.66;4992736;28;20101;-47
2021/05/06 05:27:47;;;;;;;5.38;1.45;;;;;;;2.03;72.35;100261.59;4976167;28;20093;-49
2021/05/06 05:30:14;;;;;;;3.50;1.73;;;;;;;2.04;72.51;100271.44;4975456;28;20052;-53
2021/05/06 05:32:59;;;;;;;3.10;1.80;;;;;;;2.07;72.54;100273.53;4978723;28;20053;-49
2021/05/06 05:35:40;;;;;;;8.93;2.00;;;;;;;2.05;72.92;100271.13;4993415;28;20074;-49
2021/05/06 05:40:43;;;;;;;10.93;1.80;;;;;;;2.10;72.37;100268.28;4992546;28;20563;-48
2021/05/06 05:56:11;;;;;;;3.60;1.65;;;;;;;2.32;72.75;100281.28;4981081;28;20151;-47
2021/05/06 05:58:37;;;;;;;5.05;1.65;;;;;;;2.37;72.66;100278.44;4992789;28;20086;-48
2021/05/06 06:01:04;;;;;;;2.58;1.67;;;;;;;2.39;72.91;100281.69;4992402;28;20534;-49
2021/05/06 06:03:30;;;;;;;6.47;1.55;;;;;;;2.45;73.08;100286.75;4992728;28;20074;-47
2021/05/06 06:05:56;;;;;;;2.15;1.63;;;;;;;2.48;73.11;100279.88;4991465;28;20069;-47
2021/05/06 06:08:25;;;;;;;6.82;1.60;;;;;;;2.47;72.94;100280.97;4992684;28;20108;-47
2021/05/06 06:10:52;;;;;;;3.05;1.60;;;;;;;2.50;73.04;100288.56;4973512;28;20074;-47
2021/05/06 06:13:18;;;;;;;2.03;1.27;;;;;;;2.54;73.03;100286.06;4992044;28;20511;-47
2021/05/06 06:15:53;;;;;;;2.42;1.17;;;;;;;2.58;72.98;100289.78;4992446;28;20502;-47
2021/05/06 06:18:36;;;;;;;4.82;2.10;;;;;;;2.57;73.27;100285.47;4991983;28;20133;-50
2021/05/06 06:21:25;;;;;;;5.03;1.70;;;;;;;2.66;72.89;100298.09;4992365;28;20050;-47
2021/05/06 06:23:53;;;;;;;4.07;1.35;;;;;;;2.71;73.11;100295.25;4992016;28;20046;-52
2021/05/06 06:26:19;;;;;;;2.92;1.70;;;;;;;2.76;72.87;100305.28;4992468;28;20120;-49
2021/05/06 06:28:48;;;;;;;2.75;1.35;;;;;;;2.79;72.90;100301.94;4992000;28;20583;-49
2021/05/06 06:31:24;;;;;;;3.88;1.50;;;;;;;2.80;72.96;100293.44;4992060;28;20072;-51
2021/05/06 06:33:51;;;;;;;3.78;1.38;;;;;;;2.82;73.13;100302.16;4991802;28;20066;-48
2021/05/06 06:36:18;;;;;;;8.55;1.80;;;;;;;2.87;72.82;100302.03;4992749;28;20053;-47
2021/05/06 06:38:49;;;;;;;2.72;1.33;;;;;;;2.92;72.73;100301.13;4991742;28;20053;-48
2021/05/06 06:41:16;;;;;;;2.40;1.30;;;;;;;2.97;72.77;100307.28;4991345;28;20399;-48
2021/05/06 06:43:48;;;;;;;3.00;1.20;;;;;;;3.00;72.75;100314.88;4974633;28;20042;-50
2021/05/06 06:46:16;;;;;;;3.50;1.40;;;;;;;3.02;72.63;100312.66;4992325;28;20077;-48
2021/05/06 06:48:44;;;;;;;3.13;1.73;;;;;;;3.06;72.60;100313.66;4974598;28;20066;-48
2021/05/06 06:51:13;;;;;;;2.45;1.38;;;;;;;3.07;72.99;100312.53;4991384;28;20046;-48
2021/05/06 06:53:40;;;;;;;5.70;1.70;;;;;;;3.11;72.94;100320.13;4991057;28;20479;-49
2021/05/06 06:56:06;;;;;;;3.05;1.30;;;;;;;3.16;73.05;100317.28;4991765;28;20449;-51
2021/05/06 06:58:32;;;;;;;2.03;1.73;;;;;;;3.24;72.68;100316.56;4975427;28;20063;-47
2021/05/06 07:00:59;;;;;;;3.65;1.63;;;;;;;3.31;72.92;100314.25;4986375;28;20050;-49
2021/05/06 07:03:25;;;;;;;8.55;2.00;;;;;;;3.35;73.08;100313.31;4992123;28;20674;-51
2021/05/06 07:05:52;;;;;;;3.40;1.13;;;;;;;3.42;72.80;100316.41;4991798;28;20046;-50
2021/05/06 07:08:23;;;;;;;3.13;1.30;;;;;;;3.46;72.80;100311.16;4990694;28;20057;-53
2021/05/06 07:10:54;;;;;;;2.55;1.10;;;;;;;3.45;72.96;100309.53;4991550;28;20480;-47
2021/05/06 07:13:24;;;;;;;4.50;1.10;;;;;;;3.46;73.10;100301.03;4991555;28;20476;-52
2021/05/06 07:15:55;;;;;;;3.95;1.70;;;;;;;3.55;72.97;100314.75;4986394;28;20043;-48
2021/05/06 07:18:22;;;;;;;6.60;1.90;;;;;;;3.62;73.06;100320.63;4988483;28;20050;-48
2021/05/06 07:20:49;;;;;;;4.22;2.28;;;;;;;3.70;72.87;100311.69;4991536;28;20089;-51
2021/05/06 07:23:18;;;;;;;3.88;1.27;;;;;;;3.76;72.84;100324.09;4991150;28;20050;-51
2021/05/06 07:25:50;;;;;;;5.68;2.50;;;;;;;3.82;72.58;100319.31;4973237;28;20461;-53
2021/05/06 07:28:28;;;;;;;8.95;1.50;;;;;;;3.91;73.15;100312.00;4953353;28;20054;-52
2021/05/06 07:30:55;;;;;;;3.78;1.98;;;;;;;4.00;72.93;100313.66;4988137;28;20038;-50
2021/05/06 07:33:26;;;;;;;3.50;1.20;;;;;;;4.09;73.47;100303.59;4989607;28;20078;-52
2021/05/06 07:35:56;;;;;;;4.32;1.60;;;;;;;4.21;73.27;100303.81;4973428;28;20046;-53
2021/05/06 07:38:27;;;;;;;4.22;1.00;;;;;;;4.32;73.62;100313.38;4976028;28;20046;-56
2021/05/06 07:40:56;;;;;;;1.80;1.23;;;;;;;4.44;73.87;100320.22;4992275;28;20042;-50
2021/05/06 07:43:25;;;;;;;2.65;1.33;;;;;;;4.55;74.49;100305.13;4975976;28;20384;-51
2021/05/06 07:45:53;;;;;;;3.70;1.20;;;;;;;4.66;74.50;100311.94;4975153;28;20050;-54
2021/05/06 07:48:25;;;;;;;7.75;1.38;;;;;;;4.82;75.02;100315.84;4993108;28;20049;-51
2021/05/06 07:50:54;;;;;;;4.00;1.20;;;;;;;5.00;74.89;100311.25;4993088;28;20124;-52
2021/05/06 07:53:26;;;;;;;3.13;1.08;;;;;;;5.21;75.76;100324.06;4992679;28;20061;-52
2021/05/06 07:55:57;;;;;;;3.65;1.40;;;;;;;5.39;76.33;100325.69;4975528;28;20100;-53
2021/05/06 07:58:24;;;;;;;4.78;1.17;;;;;;;5.59;76.31;100312.47;4981280;28;20057;-51
2021/05/06 08:00:53;;;;;;;3.80;1.38;;;;;;;5.80;77.27;100324.44;4973759;28;20097;-51
2021/05/06 08:03:21;;;;;;;7.65;1.52;;;;;;;6.12;78.51;100321.19;4965225;28;20053;-48
2021/05/06 08:05:56;;;;;;;5.25;2.08;;;;;;;6.46;79.20;100312.06;4975999;28;20038;-51
2021/05/06 08:08:26;;;;;;;5.15;1.92;;;;;;;6.95;80.25;100310.56;4967109;28;20038;-51
2021/05/06 08:10:56;;;;;;;5.05;1.15;;;;;;;7.51;79.53;100315.56;4963406;28;20102;-56
2021/05/06 08:13:27;;;;;;;5.00;1.42;;;;;;;8.14;78.38;100325.41;4980490;28;20043;-51
2021/05/06 08:15:54;;;;;;;1.85;1.13;;;;;;;8.87;76.77;100326.41;4991856;28;20042;-53
2021/05/06 08:18:20;;;;;;;2.95;1.30;;;;;;;9.66;73.60;100320.22;4989881;28;20046;-52
2021/05/06 08:20:47;;;;;;;3.53;1.10;;;;;;;10.35;70.70;100330.94;4967162;28;20046;-54
2021/05/06 08:23:13;;;;;;;2.90;1.50;;;;;;;11.02;67.65;100326.38;4985921;28;20096;-51
2021/05/06 08:25:40;;;;;;;4.75;1.35;;;;;;;11.71;65.28;100333.16;4974510;28;20050;-55
2021/05/06 08:28:07;;;;;;;2.90;1.60;;;;;;;12.23;63.61;100333.50;4991685;28;20050;-53
2021/05/06 08:30:34;;;;;;;5.78;1.70;;;;;;;12.71;61.20;100343.91;4974630;28;20050;-53
2021/05/06 08:33:04;;;;;;;6.40;1.50;;;;;;;13.04;59.62;100336.97;4978809;28;20038;-51
2021/05/06 08:35:32;;;;;;;5.63;1.35;;;;;;;13.43;58.04;100335.63;4990557;28;20049;-53
2021/05/06 08:38:01;;;;;;;4.78;1.20;;;;;;;13.71;56.32;100338.84;4992389;28;20042;-51
2021/05/06 08:40:29;;;;;;;4.80;1.33;;;;;;;13.94;55.28;100342.34;4986730;28;20045;-54
2021/05/06 08:42:57;;;;;;;7.35;1.35;;;;;;;14.14;54.00;100342.97;4971484;28;20043;-50
2021/05/06 08:45:28;;;;;;;5.72;1.08;;;;;;;14.18;52.83;100341.03;4981906;28;20050;-53
2021/05/06 08:47:56;;;;;;;3.63;1.15;;;;;;;14.23;51.72;100348.25;4989059;28;20045;-51
2021/05/06 08:50:23;;;;;;;1.88;0.70;;;;;;;14.36;50.52;100344.06;4991390;28;20054;-52
2021/05/06 08:52:49;;;;;;;4.70;1.20;;;;;;;14.32;49.52;100341.22;4992157;28;20778;-52
2021/05/06 08:55:17;;;;;;;6.07;1.25;;;;;;;14.47;49.19;100345.00;4991172;28;20745;-54
2021/05/06 08:57:44;;;;;;;4.03;1.00;;;;;;;14.67;48.94;100337.25;4991445;28;20046;-54
2021/05/06 09:00:11;;;;;;;5.78;1.00;;;;;;;14.86;47.94;100339.81;4991942;28;20118;-53
2021/05/06 09:02:45;;;;;;;3.10;1.08;;;;;;;14.94;46.90;100345.06;4989896;28;20046;-55
2021/05/06 09:05:12;;;;;;;3.72;1.55;;;;;;;15.02;46.84;100346.75;4977386;28;20050;-52
2021/05/06 09:07:46;;;;;;;4.43;1.55;;;;;;;15.14;45.90;100342.88;4992109;28;20050;-53
2021/05/06 09:10:36;;;;;;;8.00;1.02;;;;;;;15.40;45.13;100341.88;4990167;28;20042;-51
2021/05/06 09:13:23;;;;;;;3.03;0.95;;;;;;;15.53;45.15;100340.41;4966655;28;20046;-51
2021/05/06 09:15:50;;;;;;;5.43;0.90;;;;;;;15.40;44.49;100341.88;4991996;28;20046;-54
2021/05/06 09:19:00;;;;;;;5.00;1.08;;;;;;;15.29;42.80;100343.78;4989123;28;20129;-54
2021/05/06 09:21:30;;;;;;;2.95;0.95;;;;;;;15.25;43.85;100350.13;4988016;28;20515;-48
2021/05/06 09:24:24;;;;;;;4.18;0.90;;;;;;;15.37;42.63;100339.84;4974653;28;20050;-51
2021/05/06 09:26:56;;;;;;;7.40;2.88;;;;;;;15.43;42.62;100349.47;4991794;28;20042;-50
2021/05/06 09:29:35;;;;;;;2.40;1.40;;;;;;;15.61;42.33;100350.44;4991335;28;20050;-53
2021/05/06 09:32:11;;;;;;;4.22;1.05;;;;;;;15.57;41.84;100352.38;4980016;28;20096;-51
2021/05/06 09:34:42;;;;;;;4.28;1.02;;;;;;;15.61;42.54;100342.88;4973455;28;20403;-50
2021/05/06 09:37:20;;;;;;;3.65;0.90;;;;;;;15.91;42.05;100351.03;4973412;28;20125;-50
2021/05/06 09:39:59;;;;;;;3.97;1.15;;;;;;;15.16;41.13;100332.13;4974278;28;20088;-51
2021/05/06 09:42:53;;;;;;;5.32;1.10;;;;;;;14.38;40.96;100338.91;4984910;28;20081;-51
2021/05/06 09:45:27;;;;;;;4.35;0.90;;;;;;;14.31;41.26;100338.81;4954851;28;20065;-49
2021/05/06 09:48:09;;;;;;;4.70;1.23;;;;;;;14.62;41.87;100338.38;4975802;28;20054;-50
2021/05/06 09:50:39;;;;;;;6.00;1.10;;;;;;;15.11;42.06;100338.88;4990857;28;20137;-47
2021/05/06 09:53:15;;;;;;;3.65;1.05;;;;;;;15.51;39.09;100343.59;4973669;28;20129;-49
2021/05/06 09:55:48;;;;;;;3.63;0.70;;;;;;;15.48;40.55;100351.94;4990207;28;20124;-51
2021/05/06 09:58:22;;;;;;;6.95;1.02;;;;;;;14.63;39.94;100348.34;4971148;28;20146;-51
2021/05/06 10:00:51;;;;;;;5.03;1.00;;;;;;;14.65;40.46;100343.19;4974258;28;20056;-50
2021/05/06 10:03:21;;;;;;;5.38;0.80;;;;;;;14.41;40.18;100347.31;4984183;28;20047;-50
2021/05/06 10:05:49;;;;;;;4.88;2.00;;;;;;;13.28;40.44;100356.06;4972597;28;20839;-48
2021/05/06 10:08:16;;;;;;;2.95;0.75;;;;;;;12.56;41.21;100355.13;4984053;28;20052;-49
2021/05/06 10:10:43;;;;;;;2.55;1.10;;;;;;;12.84;41.80;100361.22;4972463;28;20050;-49
2021/05/06 10:13:10;;;;;;;2.38;1.38;;;;;;;13.40;41.80;100353.06;4989604;28;20069;-48
2021/05/06 10:15:39;;;;;;;3.42;0.85;;;;;;;14.02;41.30;100354.38;4990703;28;20045;-50
2021/05/06 10:18:08;;;;;;;4.60;1.40;;;;;;;14.38;40.69;100358.41;4989137;28;20058;-50
2021/05/06 10:20:35;;;;;;;5.50;2.78;;;;;;;14.75;40.48;100356.44;4990083;28;20046;-48
2021/05/06 10:23:03;;;;;;;5.90;0.70;;;;;;;14.88;39.90;100357.75;4953816;28;20058;-49
2021/05/06 10:25:31;;;;;;;2.88;0.60;;;;;;;14.96;39.65;100365.00;4969663;28;20704;-50
2021/05/06 10:27:58;;;;;;;5.07;1.35;;;;;;;14.78;38.95;100369.59;4986421;28;20566;-54
2021/05/06 10:30:28;;;;;;;8.20;1.90;;;;;;;14.68;39.21;100359.16;4975187;28;20058;-49
2021/05/06 10:32:55;;;;;;;3.80;1.35;;;;;;;14.75;38.63;100359.22;4985297;28;20038;-48
2021/05/06 10:35:27;;;;;;;3.78;0.70;;;;;;;14.65;38.74;100354.34;4973832;28;20050;-53
2021/05/06 10:37:58;;;;;;;2.88;0.70;;;;;;;14.57;38.28;100355.44;4962619;28;20066;-50
2021/05/06 10:40:31;;;;;;;4.63;1.02;;;;;;;14.39;36.56;100358.03;4973355;28;20042;-50
2021/05/06 10:43:18;;;;;;;4.63;1.10;;;;;;;14.14;36.98;100364.47;4989609;28;20488;-49
2021/05/06 10:45:58;;;;;;;2.38;0.85;;;;;;;14.07;37.61;100361.56;4988654;28;20113;-51
2021/05/06 10:49:02;;;;;;;4.57;0.90;;;;;;;13.94;38.04;100361.81;4989319;28;20046;-47
2021/05/06 10:51:35;;;;;;;4.38;1.00;;;;;;;13.90;38.59;100360.16;4972355;28;20057;-51
2021/05/06 10:54:27;;;;;;;2.45;0.93;;;;;;;13.83;37.94;100363.66;4972189;28;20086;-50
2021/05/06 10:56:59;;;;;;;1.80;0.60;;;;;;;13.56;38.46;100359.25;4972087;28;20034;-49
2021/05/06 10:59:28;;;;;;;3.00;0.70;;;;;;;13.40;39.12;100355.84;4971436;28;20492;-49
2021/05/06 11:01:57;;;;;;;3.67;0.85;;;;;;;13.37;38.94;100362.13;4988721;28;20042;-48
2021/05/06 11:04:42;;;;;;;1.75;0.60;;;;;;;13.20;38.93;100369.03;4989674;28;20120;-49
2021/05/06 11:07:18;;;;;;;3.03;0.73;;;;;;;13.11;38.67;100374.03;4989770;28;20049;-52
2021/05/06 11:09:51;;;;;;;1.48;0.60;;;;;;;12.96;39.14;100368.56;4988229;28;20491;-47
2021/05/06 11:12:23;;;;;;;3.67;1.30;;;;;;;12.90;39.12;100367.25;4955451;28;20039;-49
2021/05/06 11:15:00;;;;;;;3.80;1.17;;;;;;;12.84;38.62;100361.22;4972108;28;20055;-50
2021/05/06 11:17:33;;;;;;;2.13;0.88;;;;;;;12.81;38.85;100362.75;4971151;28;20530;-49
2021/05/06 11:20:20;;;;;;;3.17;1.15;;;;;;;12.90;39.39;100367.25;4971707;28;20400;-53
2021/05/06 11:22:48;;;;;;;4.25;2.38;;;;;;;12.83;39.48;100365.19;4988151;28;20046;-51
2021/05/06 11:25:27;;;;;;;3.15;0.73;;;;;;;12.78;39.26;100371.03;4971735;28;20157;-49
2021/05/06 11:27:59;;;;;;;7.80;1.42;;;;;;;12.74;39.67;100368.19;4988440;28;20038;-50
2021/05/06 11:30:32;;;;;;;2.30;0.82;;;;;;;12.62;39.78;100365.59;4988778;28;20157;-47
2021/05/06 11:33:20;;;;;;;3.20;1.65;;;;;;;12.64;39.79;100374.34;4975541;28;20045;-50
2021/05/06 11:36:07;;;;;;;1.33;0.60;;;;;;;12.65;40.26;100367.63;4989495;28;20089;-51
2021/05/06 11:38:45;;;;;;;5.28;1.25;;;;;;;12.77;40.82;100370.22;4972596;28;20042;-52
2021/05/06 11:41:28;;;;;;;1.92;0.70;;;;;;;12.85;40.25;100362.81;4971878;28;20126;-52
2021/05/06 11:43:56;;;;;;;2.15;0.90;;;;;;;12.94;40.43;100365.38;4989025;28;20046;-54
2021/05/06 11:46:45;;;;;;;3.75;1.02;;;;;;;13.02;40.38;100361.53;4970487;28;20058;-53
2021/05/06 11:49:14;;;;;;;5.07;1.35;;;;;;;12.76;40.39;100373.41;4967325;28;20038;-49
2021/05/06 11:51:44;;;;;;;3.00;0.47;;;;;;;12.44;39.71;100370.00;4972157;28;20049;-47
2021/05/06 11:54:15;;;;;;;2.08;0.80;;;;;;;12.40;39.52;100369.13;4988736;28;20492;-48
2021/05/06 11:56:48;;;;;;;5.85;1.30;;;;;;;12.44;39.96;100364.44;4988229;28;20439;-48
2021/05/06 11:59:19;;;;;;;2.55;1.10;;;;;;;12.68;40.52;100358.53;4988255;28;20062;-50
2021/05/06 12:01:46;;;;;;;1.00;0.63;;;;;;;12.69;40.32;100371.28;4987583;28;20384;-50
2021/05/06 12:04:34;;;;;;;4.07;1.45;;;;;;;12.51;40.48;100367.34;4987287;28;20046;-49
2021/05/06 12:07:14;;;;;;;2.05;0.98;;;;;;;12.39;41.14;100367.50;4961298;28;20038;-50
2021/05/06 12:09:41;;;;;;;4.68;2.60;;;;;;;12.54;41.08;100369.41;4971364;28;20550;-51
2021/05/06 12:12:08;;;;;;;5.63;1.95;;;;;;;12.67;41.07;100364.47;4956093;28;20050;-46
2021/05/06 12:14:37;;;;;;;2.20;0.73;;;;;;;12.87;41.09;100360.47;4972375;28;20065;-53
2021/05/06 12:17:08;;;;;;;4.50;0.90;;;;;;;13.01;40.98;100366.28;4988611;28;20124;-52
2021/05/06 12:19:43;;;;;;;3.13;0.80;;;;;;;13.08;40.04;100354.53;4988524;28;20047;-51
2021/05/06 12:22:10;;;;;;;2.30;0.73;;;;;;;13.03;40.50;100357.56;4956389;28;20053;-50
2021/05/06 12:24:38;;;;;;;1.98;1.55;;;;;;;13.05;40.89;100369.91;4991434;28;20046;-49
2021/05/06 12:27:22;;;;;;;2.17;0.52;;;;;;;13.20;39.99;100363.47;4992212;28;20042;-52
2021/05/06 12:29:51;;;;;;;6.80;0.90;;;;;;;13.32;40.10;100362.47;4990203;28;20038;-49
2021/05/06 12:32:26;;;;;;;2.30;0.85;;;;;;;13.48;39.66;100352.00;4992039;28;20483;-51
2021/05/06 12:34:55;;;;;;;2.92;2.03;;;;;;;13.44;40.06;100373.41;4992355;28;20061;-49
2021/05/06 12:37:24;;;;;;;1.75;0.68;;;;;;;13.38;39.42;100363.75;4974454;28;20751;-48
2021/05/06 12:39:52;;;;;;;4.50;0.80;;;;;;;13.38;39.72;100361.78;4973847;28;20157;-47
2021/05/06 12:42:28;;;;;;;2.22;0.65;;;;;;;13.47;40.47;100366.28;4974488;28;20178;-52
2021/05/06 12:44:55;;;;;;;2.65;1.10;;;;;;;13.53;40.76;100360.00;4974466;28;20039;-52
2021/05/06 12:47:28;;;;;;;5.63;2.03;;;;;;;13.72;40.33;100361.88;4991171;28;20084;-47
2021/05/06 12:50:21;;;;;;;3.13;0.90;;;;;;;13.86;38.75;100351.78;4974296;28;20556;-52
2021/05/06 12:52:56;;;;;;;2.92;0.93;;;;;;;14.14;38.86;100353.34;4954414;28;20055;-51
2021/05/06 12:55:26;;;;;;;2.83;0.80;;;;;;;14.06;39.38;100360.75;4980318;28;20061;-49
2021/05/06 12:58:13;;;;;;;3.35;0.93;;;;;;;13.84;38.18;100359.69;4995398;28;20118;-46
2021/05/06 13:01:03;;;;;;;1.58;0.95;;;;;;;13.74;39.54;100365.13;4989312;28;20042;-46
2021/05/06 13:03:38;;;;;;;1.40;0.47;;;;;;;13.60;38.40;100367.69;4981762;28;20074;-49
2021/05/06 13:06:08;;;;;;;1.75;0.57;;;;;;;13.41;38.79;100368.56;4991622;28;20070;-48
2021/05/06 13:08:39;;;;;;;2.92;0.82;;;;;;;13.41;39.08;100369.38;4983627;28;20050;-48
2021/05/06 13:11:08;;;;;;;5.22;0.88;;;;;;;13.65;38.57;100356.22;4990948;28;20100;-47
2021/05/06 13:13:45;;;;;;;1.60;0.63;;;;;;;13.98;37.75;100368.22;4989024;28;20042;-46
2021/05/06 13:16:14;;;;;;;3.45;0.82;;;;;;;14.16;38.32;100360.13;4992062;28;20631;-46
2021/05/06 13:18:41;;;;;;;1.63;0.73;;;;;;;14.06;38.27;100365.56;4990587;28;20051;-45
2021/05/06 13:21:22;;;;;;;2.35;0.50;;;;;;;14.34;36.57;100371.50;4990649;28;20051;-48
2021/05/06 13:23:55;;;;;;;1.02;0.77;;;;;;;14.44;36.79;100360.50;4990490;28;20480;-47
2021/05/06 13:26:34;;;;;;;2.88;0.60;;;;;;;14.70;35.96;100356.78;4974153;28;20046;-46
2021/05/06 13:29:06;;;;;;;2.08;0.35;;;;;;;14.57;36.71;100355.44;4989369;28;20446;-48
2021/05/06 13:31:37;;;;;;;3.05;1.13;;;;;;;14.28;37.17;100368.22;4988351;28;20860;-45
2021/05/06 13:34:23;;;;;;;4.03;1.40;;;;;;;14.53;36.93;100365.75;4990522;28;20054;-50
2021/05/06 13:37:01;;;;;;;6.47;1.25;;;;;;;14.93;37.05;100360.19;4989395;28;20125;-45
2021/05/06 13:39:29;;;;;;;1.73;0.40;;;;;;;15.14;37.24;100360.38;4990011;28;20050;-47
2021/05/06 13:41:55;;;;;;;4.15;1.20;;;;;;;14.95;37.26;100363.41;4990655;28;20038;-47
2021/05/06 13:44:25;;;;;;;2.50;0.45;;;;;;;14.26;37.46;100364.22;4989192;28;20054;-47
2021/05/06 13:46:54;;;;;;;5.10;0.57;;;;;;;14.04;36.99;100352.81;4988334;28;20381;-48
2021/05/06 13:49:21;;;;;;;4.18;0.70;;;;;;;14.38;37.01;100362.00;4989591;28;20583;-46
2021/05/06 13:51:49;;;;;;;1.02;0.80;;;;;;;14.74;36.50;100352.06;4990850;28;20431;-50
2021/05/06 13:54:17;;;;;;;2.42;0.50;;;;;;;14.81;35.62;100363.28;4990088;28;20034;-49
2021/05/06 13:56:43;;;;;;;4.70;0.98;;;;;;;14.93;35.61;100360.19;4989449;28;20077;-48
2021/05/06 13:59:14;;;;;;;1.73;0.80;;;;;;;15.07;35.97;100353.94;4989629;28;20089;-48
2021/05/06 14:01:52;;;;;;;3.63;0.85;;;;;;;15.31;36.39;100366.50;4989582;28;20124;-49
2021/05/06 14:04:18;;;;;;;2.30;0.88;;;;;;;15.50;36.46;100366.28;4989258;28;20053;-50
2021/05/06 14:06:45;;;;;;;1.58;0.52;;;;;;;15.58;36.08;100362.38;4987337;28;20077;-50
2021/05/06 14:09:18;;;;;;;4.63;1.15;;;;;;;15.57;35.98;100360.75;4989606;28;20050;-51
2021/05/06 14:11:47;;;;;;;3.58;1.25;;;;;;;15.77;36.03;100354.53;4989775;28;20062;-50
2021/05/06 14:14:14;;;;;;;1.05;0.60;;;;;;;15.88;35.58;100351.81;4989114;28;20074;-53
2021/05/06 14:16:41;;;;;;;3.13;0.40;;;;;;;16.08;35.60;100347.50;4990088;28;20061;-49
2021/05/06 14:19:13;;;;;;;3.35;0.70;;;;;;;16.23;35.63;100359.56;4990496;28;20046;-49
2021/05/06 14:21:41;;;;;;;2.03;0.85;;;;;;;16.01;35.66;100353.06;4989054;28;20046;-53
2021/05/06 14:24:10;;;;;;;2.88;1.00;;;;;;;15.59;36.34;100355.59;4990800;28;20050;-54
2021/05/06 14:26:37;;;;;;;4.70;2.03;;;;;;;15.34;37.04;100372.13;4988502;28;20050;-49
2021/05/06 14:29:04;;;;;;;3.92;1.00;;;;;;;14.91;37.03;100382.09;4988424;28;20132;-48
2021/05/06 14:31:31;;;;;;;2.38;0.98;;;;;;;14.66;37.28;100378.25;4987275;28;20060;-49
2021/05/06 14:33:57;;;;;;;6.00;1.55;;;;;;;14.56;37.54;100379.72;4988752;28;20076;-50
2021/05/06 14:36:24;;;;;;;3.55;1.02;;;;;;;14.56;37.76;100378.94;4988315;28;20129;-48
2021/05/06 14:38:50;;;;;;;2.70;0.80;;;;;;;14.75;37.99;100381.50;4989831;28;20540;-48
2021/05/06 14:41:17;;;;;;;2.60;1.00;;;;;;;15.39;37.94;100373.75;4989719;28;20492;-51
2021/05/06 14:43:43;;;;;;;3.75;0.93;;;;;;;15.97;37.43;100373.75;4971869;28;20100;-51
2021/05/06 14:46:10;;;;;;;5.60;1.20;;;;;;;16.44;37.18;100385.56;4989417;28;20125;-50
2021/05/06 14:48:37;;;;;;;4.63;1.00;;;;;;;16.29;36.89;100383.09;4989139;28;20056;-49
2021/05/06 14:51:03;;;;;;;4.00;1.23;;;;;;;16.14;36.85;100373.88;4988683;28;20061;-48
2021/05/06 14:53:30;;;;;;;5.22;0.88;;;;;;;16.10;36.47;100367.44;4988535;28;20053;-47
2021/05/06 14:55:57;;;;;;;3.08;0.88;;;;;;;16.19;36.55;100369.91;4990099;28;20137;-50
2021/05/06 14:58:28;;;;;;;3.75;1.23;;;;;;;16.54;36.37;100360.88;4988010;28;20058;-48
2021/05/06 15:00:56;;;;;;;2.97;1.00;;;;;;;16.36;36.55;100364.38;4988934;28;20042;-50
2021/05/06 15:03:26;;;;;;;3.83;0.95;;;;;;;16.29;36.07;100369.94;4988057;28;20073;-48
2021/05/06 15:05:53;;;;;;;4.88;1.17;;;;;;;16.58;35.57;100370.88;4988900;28;20762;-47
2021/05/06 15:08:19;;;;;;;1.00;0.43;;;;;;;16.70;35.29;100372.50;4988636;28;20181;-50